Time;durP1;ratioP1;P1;durP2;ratioP2;P2;SDS_P1;SDS_P2;PMS_P1;PMS_P2;Temp;Humidity;BMP_temperature;BMP_pressure;BME280_temperature;BME280_humidity;BME280_pressure;Samples;Min_cycle;Max_cycle;Signal;HPM_P1;HPM_P2
2021/03/22 00:02:07;;;;;;;31.40;6.37;;;6.50;76.50;;;;;;5027959;28;20030;-73
2021/03/22 00:04:32;;;;;;;22.23;3.80;;;6.50;76.50;;;;;;4993766;28;20037;-73
2021/03/22 00:06:58;;;;;;;23.37;5.00;;;6.50;76.30;;;;;;5029041;28;20021;-74
2021/03/22 00:09:24;;;;;;;28.30;8.07;;;6.40;76.40;;;;;;5010560;28;20034;-74
2021/03/22 00:11:49;;;;;;;29.10;4.90;;;6.40;76.80;;;;;;5027959;28;20026;-73
2021/03/22 00:14:15;;;;;;;20.77;4.80;;;6.40;76.70;;;;;;5004890;28;20470;-73
2021/03/22 00:16:41;;;;;;;18.57;3.97;;;6.30;76.70;;;;;;5028148;28;20417;-73
2021/03/22 00:19:06;;;;;;;26.67;4.70;;;6.30;76.70;;;;;;5010866;28;20402;-76
2021/03/22 00:21:32;;;;;;;23.03;6.23;;;6.20;76.90;;;;;;5028088;28;20045;-73
2021/03/22 00:23:58;;;;;;;25.57;5.33;;;6.10;77.10;;;;;;5011245;28;20033;-73
2021/03/22 00:26:24;;;;;;;23.43;5.57;;;6.10;77.30;;;;;;5028305;28;20037;-74
2021/03/22 00:28:49;;;;;;;25.43;4.20;;;6.00;77.50;;;;;;5007805;28;20422;-74
2021/03/22 00:31:16;;;;;;;29.50;8.47;;;5.90;77.60;;;;;;5006125;28;20022;-73
2021/03/22 00:33:42;;;;;;;25.93;6.67;;;5.90;78.20;;;;;;5008743;28;20251;-74
2021/03/22 00:36:09;;;;;;;26.97;5.73;;;5.80;78.30;;;;;;5006340;28;20026;-76
2021/03/22 00:38:35;;;;;;;23.03;4.97;;;5.70;78.50;;;;;;5008652;28;20029;-73
2021/03/22 00:41:01;;;;;;;33.03;5.47;;;5.60;78.40;;;;;;5009676;28;20049;-73
2021/03/22 00:43:27;;;;;;;26.97;5.03;;;5.50;78.60;;;;;;5011771;28;20034;-74
2021/03/22 00:45:56;;;;;;;23.17;4.77;;;5.40;78.90;;;;;;5012443;28;20030;-74
2021/03/22 00:48:21;;;;;;;20.07;3.57;;;5.30;79.00;;;;;;5010895;28;20029;-74
2021/03/22 00:50:47;;;;;;;25.20;5.60;;;5.30;79.60;;;;;;5012797;28;20034;-75
2021/03/22 00:53:15;;;;;;;27.93;6.10;;;5.30;79.50;;;;;;5011602;28;20393;-76
2021/03/22 00:55:41;;;;;;;29.83;5.80;;;5.30;79.80;;;;;;5013253;28;20363;-73
2021/03/22 00:58:07;;;;;;;23.50;5.37;;;5.40;79.90;;;;;;5010597;28;20025;-74
2021/03/22 01:00:39;;;;;;;25.43;6.37;;;5.40;79.90;;;;;;5011138;28;20041;-73
2021/03/22 01:03:07;;;;;;;25.57;6.43;;;5.40;80.30;;;;;;5010786;28;20046;-75
2021/03/22 01:05:33;;;;;;;25.87;4.77;;;5.40;80.20;;;;;;5012626;28;20174;-75
2021/03/22 01:07:59;;;;;;;23.97;5.70;;;5.40;80.60;;;;;;5010563;28;20057;-74
2021/03/22 01:10:27;;;;;;;23.60;5.17;;;5.40;80.20;;;;;;5011611;28;20061;-75
2021/03/22 01:12:53;;;;;;;24.20;4.87;;;5.30;80.40;;;;;;5010122;28;20034;-74
2021/03/22 01:15:20;;;;;;;25.30;5.53;;;5.20;80.60;;;;;;5008392;28;20042;-75
2021/03/22 01:17:47;;;;;;;24.43;6.10;;;5.10;80.80;;;;;;5010609;28;20030;-75
2021/03/22 01:20:16;;;;;;;25.80;4.63;;;5.00;81.00;;;;;;5010341;28;20137;-77
2021/03/22 01:22:42;;;;;;;24.60;4.83;;;4.90;81.20;;;;;;5004784;28;20068;-74
2021/03/22 01:25:12;;;;;;;25.50;4.77;;;4.80;81.50;;;;;;4994101;28;20054;-73
2021/03/22 01:27:42;;;;;;;21.47;5.80;;;4.70;81.80;;;;;;5018063;28;20052;-74
2021/03/22 01:30:17;;;;;;;24.60;5.83;;;4.70;82.20;;;;;;5010988;28;20033;-73
2021/03/22 01:32:43;;;;;;;23.43;5.07;;;4.60;82.40;;;;;;5013205;28;21011;-72
2021/03/22 01:35:09;;;;;;;17.97;5.47;;;4.60;82.50;;;;;;5029086;28;20033;-72
2021/03/22 01:37:35;;;;;;;20.50;5.00;;;4.70;83.10;;;;;;4979983;28;20040;-72
2021/03/22 01:40:02;;;;;;;18.73;4.53;;;4.60;83.00;;;;;;5013491;28;20050;-72
2021/03/22 01:42:33;;;;;;;25.53;4.17;;;4.60;83.00;;;;;;5012150;28;20407;-74
2021/03/22 01:45:08;;;;;;;26.83;4.37;;;4.50;83.10;;;;;;5007151;28;20390;-72
2021/03/22 01:47:34;;;;;;;23.33;3.87;;;4.50;83.20;;;;;;5029820;28;20091;-73
2021/03/22 01:50:05;;;;;;;26.43;5.10;;;4.50;83.30;;;;;;5013210;28;20095;-72
2021/03/22 01:52:34;;;;;;;21.03;4.20;;;4.50;83.60;;;;;;5027630;28;20029;-72
2021/03/22 01:54:59;;;;;;;25.50;3.93;;;4.40;83.40;;;;;;5012785;28;20017;-73
2021/03/22 01:57:30;;;;;;;26.27;4.93;;;4.40;83.50;;;;;;5012102;28;20099;-73
2021/03/22 02:00:14;;;;;;;25.60;6.10;;;4.30;83.40;;;;;;5029697;28;20045;-72
2021/03/22 02:02:42;;;;;;;22.23;4.23;;;4.30;83.90;;;;;;5028645;28;20083;-72
2021/03/22 02:05:11;;;;;;;20.23;4.30;;;4.30;83.80;;;;;;5011475;28;20029;-75
2021/03/22 02:07:37;;;;;;;15.77;3.27;;;4.30;83.90;;;;;;5029652;28;20024;-74
2021/03/22 02:10:06;;;;;;;24.20;4.60;;;4.20;83.90;;;;;;5012582;28;20049;-73
2021/03/22 02:12:32;;;;;;;22.93;4.90;;;4.20;84.10;;;;;;5006549;28;20052;-74
2021/03/22 02:14:58;;;;;;;26.50;4.70;;;4.20;84.20;;;;;;5028070;28;20454;-74
2021/03/22 02:17:23;;;;;;;27.73;4.63;;;4.20;84.20;;;;;;4995181;28;20036;-78
2021/03/22 02:20:04;;;;;;;17.50;3.17;;;4.20;84.30;;;;;;5030082;28;20033;-73
2021/03/22 02:22:51;;;;;;;22.67;4.13;;;4.20;84.30;;;;;;5008682;28;20026;-73
2021/03/22 02:25:33;;;;;;;23.67;4.50;;;4.10;84.50;;;;;;5012061;28;20040;-74
2021/03/22 02:28:17;;;;;;;26.13;4.20;;;4.00;84.60;;;;;;5029106;28;20513;-75
2021/03/22 02:30:57;;;;;;;24.73;4.37;;;4.00;84.70;;;;;;5007301;28;20532;-74
2021/03/22 02:33:42;;;;;;;20.17;4.43;;;3.90;84.90;;;;;;5011051;28;20041;-78
2021/03/22 02:36:22;;;;;;;25.20;4.40;;;3.90;85.00;;;;;;5029839;28;20029;-75
2021/03/22 02:38:59;;;;;;;29.33;4.20;;;3.90;85.20;;;;;;5028823;28;20037;-75
2021/03/22 02:41:31;;;;;;;26.73;4.33;;;3.80;85.20;;;;;;5028663;28;20062;-77
2021/03/22 02:44:25;;;;;;;17.10;3.47;;;3.70;85.40;;;;;;5009901;28;20859;-73
2021/03/22 02:47:04;;;;;;;26.17;4.63;;;3.70;85.50;;;;;;5026383;28;20793;-74
2021/03/22 02:49:34;;;;;;;26.77;4.53;;;3.60;85.60;;;;;;5027616;28;20040;-75
2021/03/22 02:52:07;;;;;;;27.13;5.77;;;3.70;85.90;;;;;;5028719;28;20029;-72
2021/03/22 02:54:54;;;;;;;25.23;4.43;;;3.70;86.00;;;;;;5029278;28;20025;-74
2021/03/22 02:57:39;;;;;;;25.90;4.37;;;3.80;86.30;;;;;;5009293;28;20370;-74
2021/03/22 03:00:10;;;;;;;28.00;5.20;;;3.80;86.10;;;;;;5029539;28;20033;-73
2021/03/22 03:02:40;;;;;;;24.93;4.63;;;3.70;86.10;;;;;;5010218;28;20112;-73
2021/03/22 03:05:24;;;;;;;23.73;4.63;;;3.70;86.10;;;;;;5011316;28;20621;-75
2021/03/22 03:07:50;;;;;;;23.03;4.27;;;3.70;86.30;;;;;;5028294;28;20022;-75
2021/03/22 03:10:18;;;;;;;20.20;4.90;;;3.60;86.20;;;;;;4995068;28;20030;-75
2021/03/22 03:12:44;;;;;;;23.57;4.67;;;3.60;86.40;;;;;;5029150;28;20037;-75
2021/03/22 03:15:11;;;;;;;20.73;4.63;;;3.60;86.40;;;;;;5012063;28;20092;-75
2021/03/22 03:17:37;;;;;;;28.40;5.90;;;3.50;86.60;;;;;;5028437;28;20527;-76
2021/03/22 03:20:08;;;;;;;23.67;5.53;;;3.50;86.60;;;;;;5029154;28;20129;-75
2021/03/22 03:22:36;;;;;;;23.80;5.27;;;3.60;86.90;;;;;;5010237;28;20034;-75
2021/03/22 03:25:02;;;;;;;25.43;5.77;;;3.50;86.90;;;;;;5008490;28;20478;-76
2021/03/22 03:27:28;;;;;;;24.00;4.73;;;3.50;87.00;;;;;;5027363;28;20053;-77
2021/03/22 03:29:53;;;;;;;24.07;5.40;;;3.50;86.90;;;;;;4977880;28;20477;-75
2021/03/22 03:32:20;;;;;;;23.73;5.63;;;3.40;87.10;;;;;;5009207;28;20034;-74
2021/03/22 03:34:46;;;;;;;26.03;5.13;;;3.50;87.40;;;;;;5027866;28;20049;-74
2021/03/22 03:37:12;;;;;;;22.40;4.60;;;3.50;87.30;;;;;;4994327;28;20033;-74
2021/03/22 03:39:39;;;;;;;21.73;5.10;;;3.50;87.40;;;;;;4993562;28;20136;-74
2021/03/22 03:42:07;;;;;;;20.93;4.97;;;3.50;87.40;;;;;;5027865;28;20025;-74
2021/03/22 03:44:33;;;;;;;22.47;4.90;;;3.60;87.40;;;;;;5010166;28;20041;-74
2021/03/22 03:46:59;;;;;;;23.70;6.07;;;3.70;87.50;;;;;;5010165;28;20064;-75
2021/03/22 03:49:25;;;;;;;25.47;4.73;;;3.90;87.60;;;;;;5028545;28;20088;-75
2021/03/22 03:51:50;;;;;;;30.60;5.30;;;4.00;87.20;;;;;;5010461;28;20026;-74
2021/03/22 03:54:17;;;;;;;23.17;5.00;;;4.10;86.80;;;;;;4994646;28;20037;-77
2021/03/22 03:56:43;;;;;;;23.23;5.07;;;4.10;87.00;;;;;;5005014;28;20033;-74
2021/03/22 03:59:08;;;;;;;16.40;4.07;;;4.10;86.30;;;;;;5010597;28;20401;-77
2021/03/22 04:01:35;;;;;;;24.90;4.77;;;4.00;86.20;;;;;;5028062;28;20037;-74
2021/03/22 04:04:01;;;;;;;31.30;5.37;;;3.90;86.10;;;;;;5011165;28;20458;-72
2021/03/22 04:06:30;;;;;;;23.13;5.57;;;3.90;86.20;;;;;;5028354;28;20026;-74
2021/03/22 04:08:58;;;;;;;26.93;5.57;;;3.80;86.30;;;;;;5028002;28;20056;-73
2021/03/22 04:11:39;;;;;;;25.30;5.87;;;3.70;86.50;;;;;;5010449;28;20022;-73
2021/03/22 04:14:07;;;;;;;30.07;6.43;;;3.70;86.60;;;;;;5009736;28;20029;-72
2021/03/22 04:16:33;;;;;;;23.43;5.90;;;3.70;86.80;;;;;;5032134;28;20064;-76
2021/03/22 04:19:00;;;;;;;28.70;5.50;;;3.80;86.90;;;;;;5031751;28;20080;-73
2021/03/22 04:21:28;;;;;;;26.07;6.03;;;3.90;86.60;;;;;;4997976;28;20478;-72
2021/03/22 04:23:55;;;;;;;26.70;5.10;;;3.90;86.50;;;;;;5031657;28;20056;-73
2021/03/22 04:26:22;;;;;;;28.63;5.97;;;3.90;87.00;;;;;;5029541;28;20434;-72
2021/03/22 04:28:48;;;;;;;28.03;5.87;;;3.90;86.50;;;;;;5013367;28;20053;-73
2021/03/22 04:31:16;;;;;;;20.07;5.37;;;3.90;86.60;;;;;;5009926;28;20462;-73
2021/03/22 04:33:42;;;;;;;27.97;6.83;;;3.90;86.60;;;;;;5013762;28;20044;-73
2021/03/22 04:36:09;;;;;;;22.43;5.70;;;4.00;86.70;;;;;;5030073;28;20033;-73
2021/03/22 04:38:35;;;;;;;21.70;5.77;;;4.00;86.60;;;;;;5031787;28;20034;-72
2021/03/22 04:41:01;;;;;;;29.07;6.80;;;4.10;86.80;;;;;;5030919;28;20048;-74
2021/03/22 04:43:27;;;;;;;26.67;7.10;;;4.10;86.60;;;;;;5010276;28;20029;-75
2021/03/22 04:45:52;;;;;;;26.73;6.67;;;4.10;86.50;;;;;;5029865;28;20087;-74
2021/03/22 04:48:18;;;;;;;31.83;7.17;;;4.10;86.40;;;;;;5032259;28;20064;-76
2021/03/22 04:50:44;;;;;;;23.30;6.70;;;4.10;86.50;;;;;;4996717;28;20125;-75
2021/03/22 04:53:10;;;;;;;23.23;6.50;;;4.10;86.60;;;;;;4997674;28;20033;-75
2021/03/22 04:55:36;;;;;;;26.83;7.03;;;4.00;86.50;;;;;;5031695;28;20071;-77
2021/03/22 04:58:02;;;;;;;34.50;7.43;;;4.00;86.70;;;;;;4993594;28;20769;-75
2021/03/22 05:00:36;;;;;;;32.00;7.23;;;4.00;86.90;;;;;;5031825;28;20058;-75
2021/03/22 05:03:02;;;;;;;30.77;7.97;;;4.00;87.00;;;;;;5029077;28;20655;-77
2021/03/22 05:05:28;;;;;;;32.00;8.20;;;4.00;87.00;;;;;;5032176;28;20033;-76
2021/03/22 05:07:54;;;;;;;35.93;8.80;;;4.00;87.10;;;;;;5012566;28;20026;-76
2021/03/22 05:10:24;;;;;;;30.33;7.83;;;4.00;87.30;;;;;;5015836;28;20063;-76
2021/03/22 05:12:50;;;;;;;31.17;8.67;;;4.00;87.40;;;;;;5013538;28;20109;-76
2021/03/22 05:15:16;;;;;;;28.67;8.13;;;4.00;87.30;;;;;;5032686;28;20489;-75
2021/03/22 05:17:42;;;;;;;23.37;8.07;;;4.00;87.40;;;;;;5014229;28;20473;-76
2021/03/22 05:20:17;;;;;;;24.40;7.73;;;4.10;87.50;;;;;;5013310;28;20042;-75
2021/03/22 05:22:42;;;;;;;35.23;8.27;;;4.10;87.50;;;;;;5012859;28;20045;-76
2021/03/22 05:25:08;;;;;;;39.40;9.37;;;4.10;87.50;;;;;;5012844;28;20548;-76
2021/03/22 05:27:34;;;;;;;31.30;9.23;;;4.20;87.50;;;;;;5012283;28;20072;-76
2021/03/22 05:30:00;;;;;;;32.03;9.50;;;4.30;87.40;;;;;;5024900;28;20041;-77
2021/03/22 05:32:35;;;;;;;27.50;9.93;;;4.40;87.50;;;;;;5030703;28;20117;-75
2021/03/22 05:35:02;;;;;;;36.73;13.03;;;4.40;87.40;;;;;;5012273;28;20131;-77
2021/03/22 05:37:28;;;;;;;34.63;13.10;;;4.50;87.30;;;;;;5005515;28;20025;-74
2021/03/22 05:39:54;;;;;;;40.70;13.70;;;4.50;87.20;;;;;;5030189;28;20524;-74
2021/03/22 05:42:34;;;;;;;36.83;12.67;;;4.60;87.20;;;;;;4995244;28;20026;-74
2021/03/22 05:45:36;;;;;;;35.30;12.20;;;4.60;87.20;;;;;;5030450;28;20104;-76
2021/03/22 05:48:54;;;;;;;34.03;12.00;;;4.60;87.00;;;;;;5010392;28;20432;-76
2021/03/22 05:51:39;;;;;;;36.80;11.70;;;4.70;87.10;;;;;;4969722;28;20030;-76
2021/03/22 05:54:23;;;;;;;33.83;11.03;;;4.70;87.00;;;;;;5028861;28;20037;-76
2021/03/22 05:57:20;;;;;;;39.30;12.43;;;4.70;86.90;;;;;;5028769;28;20104;-77
2021/03/22 06:00:04;;;;;;;34.57;11.43;;;4.80;86.90;;;;;;5027885;28;20072;-75
2021/03/22 06:02:46;;;;;;;35.80;11.83;;;4.80;86.90;;;;;;5030648;28;20055;-75
2021/03/22 06:05:41;;;;;;;32.60;13.38;;;4.80;86.80;;;;;;5029817;28;20029;-76
2021/03/22 06:08:33;;;;;;;36.70;15.47;;;4.80;87.00;;;;;;5027272;28;20128;-75
2021/03/22 06:11:03;;;;;;;42.37;15.50;;;4.80;87.00;;;;;;5028373;28;20417;-75
2021/03/22 06:13:37;;;;;;;38.57;14.40;;;4.80;87.10;;;;;;5012648;28;20499;-76
2021/03/22 06:16:33;;;;;;;37.83;12.27;;;4.90;87.30;;;;;;5011575;28;20032;-74
2021/03/22 06:19:04;;;;;;;36.63;10.30;;;4.90;87.30;;;;;;5019085;28;20059;-76
2021/03/22 06:21:33;;;;;;;34.50;11.53;;;5.00;87.30;;;;;;5012324;28;20029;-76
2021/03/22 06:23:59;;;;;;;42.60;13.50;;;5.00;87.20;;;;;;5011074;28;20025;-75
2021/03/22 06:26:41;;;;;;;33.57;12.20;;;5.20;87.20;;;;;;5012254;28;20033;-76
2021/03/22 06:29:32;;;;;;;25.65;11.63;;;5.30;87.30;;;;;;5028181;28;20045;-76
2021/03/22 06:32:04;;;;;;;32.60;11.80;;;5.50;87.10;;;;;;5029183;28;20112;-74
2021/03/22 06:34:42;;;;;;;36.45;12.88;;;5.70;87.00;;;;;;5027350;28;20057;-74
2021/03/22 06:37:10;;;;;;;44.93;12.57;;;6.00;87.00;;;;;;5028360;28;20018;-75
2021/03/22 06:39:36;;;;;;;35.87;10.80;;;6.50;86.60;;;;;;5028034;28;20041;-74
2021/03/22 06:42:24;;;;;;;27.57;8.57;;;7.00;84.40;;;;;;5011444;28;20052;-75
2021/03/22 06:44:52;;;;;;;26.83;8.10;;;7.10;82.80;;;;;;5029585;28;20076;-75
2021/03/22 06:47:24;;;;;;;24.77;8.17;;;7.00;82.20;;;;;;5010651;28;20029;-75
2021/03/22 06:49:55;;;;;;;25.83;8.30;;;6.90;82.20;;;;;;5012109;28;20032;-75
2021/03/22 06:52:24;;;;;;;26.57;8.03;;;6.80;82.30;;;;;;5027337;28;20029;-75
2021/03/22 06:55:17;;;;;;;25.17;8.00;;;6.60;82.50;;;;;;5029158;28;20137;-75
2021/03/22 06:57:50;;;;;;;23.85;8.10;;;6.80;83.60;;;;;;5027303;28;20043;-75
2021/03/22 07:00:20;;;;;;;24.67;8.27;;;7.30;82.60;;;;;;5010853;28;20354;-76
2021/03/22 07:02:54;;;;;;;22.17;7.23;;;8.00;81.50;;;;;;5007452;28;20026;-76
2021/03/22 07:05:28;;;;;;;23.50;7.30;;;8.40;78.60;;;;;;5009662;28;20473;-74
2021/03/22 07:08:01;;;;;;;18.97;5.87;;;8.90;78.10;;;;;;5027587;28;20551;-74
2021/03/22 07:11:04;;;;;;;20.02;6.97;;;9.40;76.50;;;;;;5010252;28;20037;-75
2021/03/22 07:13:33;;;;;;;19.05;5.95;;;9.30;74.90;;;;;;5025728;28;20175;-75
2021/03/22 07:16:10;;;;;;;19.53;6.63;;;9.00;75.00;;;;;;4998719;28;20031;-76
2021/03/22 07:18:37;;;;;;;17.15;5.90;;;8.70;76.20;;;;;;5021250;28;20037;-74
2021/03/22 07:21:05;;;;;;;16.67;5.80;;;8.40;77.20;;;;;;5002572;28;20068;-74
2021/03/22 07:23:46;;;;;;;19.23;5.83;;;8.30;77.80;;;;;;5005772;28;20635;-75
2021/03/22 07:26:16;;;;;;;20.10;5.60;;;8.20;78.00;;;;;;5024647;28;20025;-75
2021/03/22 07:29:07;;;;;;;17.60;5.80;;;8.10;78.10;;;;;;5021998;28;20123;-75
2021/03/22 07:31:46;;;;;;;20.03;5.50;;;8.10;78.50;;;;;;5004444;28;20047;-77
2021/03/22 07:34:48;;;;;;;17.33;5.53;;;8.30;78.90;;;;;;5018985;28;20045;-78
2021/03/22 07:37:46;;;;;;;15.60;5.47;;;8.20;78.70;;;;;;5021060;28;20492;-76
2021/03/22 07:40:25;;;;;;;20.83;5.33;;;8.30;78.70;;;;;;5024590;28;20037;-75
2021/03/22 07:43:09;;;;;;;13.37;5.50;;;8.30;78.80;;;;;;5024042;28;20080;-76
2021/03/22 07:45:54;;;;;;;20.63;5.43;;;8.30;78.50;;;;;;5005791;28;20477;-75
2021/03/22 07:48:20;;;;;;;19.83;6.83;;;8.30;79.00;;;;;;5004941;28;20080;-76
2021/03/22 07:50:51;;;;;;;20.70;5.97;;;8.40;78.60;;;;;;5004219;28;20418;-75
2021/03/22 07:53:20;;;;;;;21.23;7.37;;;8.40;78.20;;;;;;5005832;28;20018;-74
2021/03/22 07:55:58;;;;;;;19.73;7.47;;;8.40;79.10;;;;;;5002718;28;20104;-73
2021/03/22 07:59:01;;;;;;;14.93;5.67;;;8.50;78.90;;;;;;5006636;28;20025;-74
2021/03/22 08:01:41;;;;;;;17.63;5.75;;;8.50;78.10;;;;;;5021518;28;20041;-75
2021/03/22 08:04:44;;;;;;;16.53;4.90;;;8.30;78.30;;;;;;5002932;28;20496;-83
2021/03/22 08:07:31;;;;;;;16.98;5.10;;;8.30;78.60;;;;;;5021543;28;20150;-77
2021/03/22 08:10:18;;;;;;;18.47;6.50;;;8.50;78.80;;;;;;5004503;28;20052;-78
2021/03/22 08:12:54;;;;;;;13.67;4.63;;;8.80;78.60;;;;;;5023378;28;20030;-77
2021/03/22 08:15:51;;;;;;;15.77;5.77;;;9.30;77.60;;;;;;5004751;28;20033;-75
2021/03/22 08:18:39;;;;;;;19.53;8.77;;;10.20;75.40;;;;;;5022892;28;20497;-75
2021/03/22 08:21:09;;;;;;;22.20;9.10;;;10.50;73.60;;;;;;5022332;28;20033;-76
2021/03/22 08:24:11;;;;;;;20.47;11.50;;;10.60;73.10;;;;;;5003837;28;20420;-76
2021/03/22 08:26:49;;;;;;;20.17;8.50;;;10.70;73.60;;;;;;5023343;28;20030;-76
2021/03/22 08:29:20;;;;;;;20.10;7.37;;;10.80;72.80;;;;;;5020549;28;20073;-75
2021/03/22 08:32:22;;;;;;;15.70;6.80;;;10.60;72.30;;;;;;4999072;28;20057;-75
2021/03/22 08:35:05;;;;;;;14.13;7.90;;;10.50;72.10;;;;;;4999169;28;20041;-77
2021/03/22 08:37:58;;;;;;;22.58;7.97;;;10.30;72.10;;;;;;5022667;28;20036;-76
2021/03/22 08:40:33;;;;;;;22.15;12.77;;;10.20;72.40;;;;;;5021492;28;20065;-77
2021/03/22 08:43:03;;;;;;;27.10;12.27;;;10.30;72.90;;;;;;5021911;28;20049;-77
2021/03/22 08:45:48;;;;;;;23.10;11.47;;;10.30;73.00;;;;;;5022511;28;20053;-77
2021/03/22 08:48:24;;;;;;;31.10;16.53;;;10.40;72.50;;;;;;5025181;28;20029;-79
2021/03/22 08:50:51;;;;;;;29.73;14.83;;;10.50;72.80;;;;;;5005716;28;20025;-75
2021/03/22 08:53:20;;;;;;;29.77;14.37;;;10.60;72.60;;;;;;5022020;28;20079;-78
2021/03/22 08:55:54;;;;;;;27.03;14.27;;;10.60;72.70;;;;;;5024243;28;20030;-76
2021/03/22 08:58:39;;;;;;;31.90;18.33;;;10.80;72.20;;;;;;5026752;28;20032;-78
2021/03/22 09:01:08;;;;;;;33.67;17.30;;;10.90;72.00;;;;;;5007767;28;20037;-76
2021/03/22 09:03:39;;;;;;;26.77;13.73;;;11.00;71.90;;;;;;5010997;28;20527;-75
2021/03/22 09:06:17;;;;;;;34.63;18.60;;;11.00;71.00;;;;;;5029843;28;20029;-75
2021/03/22 09:08:54;;;;;;;24.77;12.77;;;10.80;71.20;;;;;;5009607;28;20048;-77
2021/03/22 09:11:26;;;;;;;29.60;16.20;;;10.80;71.10;;;;;;5027918;28;20029;-76
2021/03/22 09:14:18;;;;;;;20.60;10.57;;;10.80;71.30;;;;;;5031442;28;20040;-76
2021/03/22 09:16:52;;;;;;;22.13;12.33;;;10.70;71.00;;;;;;5029538;28;20401;-74
2021/03/22 09:19:19;;;;;;;29.07;15.60;;;10.60;71.10;;;;;;5029091;28;20033;-80
2021/03/22 09:21:55;;;;;;;32.17;19.03;;;10.60;71.30;;;;;;5030035;28;20025;-75
2021/03/22 09:24:43;;;;;;;32.17;15.87;;;10.60;71.50;;;;;;5009506;28;20486;-79
2021/03/22 09:27:20;;;;;;;35.60;18.73;;;10.70;71.10;;;;;;5006928;28;20033;-75
2021/03/22 09:30:01;;;;;;;35.03;19.17;;;10.90;71.20;;;;;;5011011;28;20161;-75
2021/03/22 09:32:28;;;;;;;25.30;10.07;;;11.10;70.40;;;;;;5009916;28;20029;-75
2021/03/22 09:35:15;;;;;;;34.47;17.03;;;11.30;69.10;;;;;;5031442;28;20035;-76
2021/03/22 09:37:55;;;;;;;32.77;15.33;;;11.20;68.90;;;;;;5012495;28;20025;-75
2021/03/22 09:40:21;;;;;;;33.33;13.67;;;11.40;68.30;;;;;;5011750;28;20026;-79
2021/03/22 09:43:05;;;;;;;34.77;18.50;;;11.50;68.50;;;;;;5028742;28;20052;-77
2021/03/22 09:45:35;;;;;;;29.27;13.63;;;11.70;68.00;;;;;;5029576;28;20022;-74
2021/03/22 09:48:26;;;;;;;29.03;14.80;;;11.80;67.10;;;;;;5030703;28;20068;-74
2021/03/22 09:51:04;;;;;;;24.47;11.50;;;11.80;67.10;;;;;;5022715;28;20717;-75
2021/03/22 09:53:53;;;;;;;27.70;11.97;;;11.80;66.60;;;;;;5028940;28;20025;-74
2021/03/22 09:56:35;;;;;;;21.63;8.83;;;11.60;66.60;;;;;;5012377;28;20025;-75
2021/03/22 09:59:38;;;;;;;19.60;8.10;;;11.50;66.50;;;;;;5012387;28;20033;-76
2021/03/22 10:02:29;;;;;;;23.90;9.33;;;11.40;67.00;;;;;;5027580;28;20105;-76
2021/03/22 10:05:16;;;;;;;20.63;8.73;;;11.30;68.00;;;;;;5002921;28;20025;-75
2021/03/22 10:07:42;;;;;;;20.10;9.20;;;11.40;68.10;;;;;;5006170;28;20033;-77
2021/03/22 10:10:29;;;;;;;19.40;7.80;;;11.30;67.00;;;;;;4996369;28;20492;-76
2021/03/22 10:13:06;;;;;;;19.33;8.80;;;11.20;66.90;;;;;;5028303;28;20473;-76
2021/03/22 10:15:52;;;;;;;22.30;8.37;;;11.10;67.60;;;;;;5029218;28;20039;-76
2021/03/22 10:18:35;;;;;;;19.57;7.70;;;11.10;67.60;;;;;;5028618;28;20100;-76
2021/03/22 10:21:10;;;;;;;20.87;8.97;;;11.00;68.30;;;;;;5012624;28;20056;-75
2021/03/22 10:23:56;;;;;;;20.90;8.50;;;11.00;68.00;;;;;;5008985;28;20126;-77
2021/03/22 10:26:47;;;;;;;19.50;9.43;;;10.90;68.10;;;;;;5008007;28;20347;-74
2021/03/22 10:29:12;;;;;;;20.17;9.30;;;11.00;68.90;;;;;;5028473;28;20053;-75
2021/03/22 10:31:39;;;;;;;15.60;8.47;;;11.10;68.40;;;;;;5011406;28;20083;-76
2021/03/22 10:34:05;;;;;;;18.47;8.43;;;11.10;68.40;;;;;;5021555;28;20029;-75
2021/03/22 10:36:36;;;;;;;18.37;9.07;;;11.10;68.50;;;;;;5011036;28;20025;-78
2021/03/22 10:39:06;;;;;;;18.50;8.40;;;11.10;68.30;;;;;;5028923;28;20033;-75
2021/03/22 10:41:36;;;;;;;15.13;7.00;;;11.10;67.90;;;;;;5029202;28;20030;-78
2021/03/22 10:44:14;;;;;;;19.07;9.73;;;11.20;68.20;;;;;;5010924;28;20536;-76
2021/03/22 10:46:40;;;;;;;19.37;9.50;;;11.30;68.40;;;;;;5027809;28;20462;-73
2021/03/22 10:49:20;;;;;;;19.33;8.23;;;11.30;68.20;;;;;;5028798;28;20107;-74
2021/03/22 10:51:50;;;;;;;18.57;9.73;;;11.40;67.70;;;;;;5027083;28;20025;-75
2021/03/22 10:54:19;;;;;;;22.90;9.77;;;11.60;67.40;;;;;;5028849;28;20029;-75
2021/03/22 10:56:57;;;;;;;15.03;7.10;;;11.60;66.90;;;;;;5024144;28;20036;-75
2021/03/22 10:59:34;;;;;;;21.00;11.57;;;11.70;66.10;;;;;;5026394;28;20029;-74
2021/03/22 11:02:10;;;;;;;23.90;11.60;;;11.90;66.50;;;;;;5027828;28;20037;-74
2021/03/22 11:04:45;;;;;;;20.03;10.80;;;12.10;65.50;;;;;;5027074;28;20064;-76
2021/03/22 11:07:14;;;;;;;25.33;11.87;;;12.20;64.90;;;;;;5029095;28;20461;-75
2021/03/22 11:09:39;;;;;;;19.80;9.30;;;12.30;65.10;;;;;;5009887;28;20029;-75
2021/03/22 11:12:06;;;;;;;24.20;9.73;;;12.20;64.10;;;;;;5029064;28;20029;-75
2021/03/22 11:14:33;;;;;;;22.00;14.10;;;12.30;64.60;;;;;;5026261;28;20041;-75
2021/03/22 11:17:14;;;;;;;24.07;15.10;;;12.50;64.80;;;;;;5015003;28;20066;-75
2021/03/22 11:19:44;;;;;;;27.80;16.77;;;12.70;64.50;;;;;;5020171;28;20477;-74
2021/03/22 11:22:29;;;;;;;22.33;11.90;;;12.90;63.90;;;;;;5021957;28;20033;-75
2021/03/22 11:24:57;;;;;;;30.73;16.87;;;12.90;62.70;;;;;;4998627;28;20389;-76
2021/03/22 11:27:25;;;;;;;26.10;14.97;;;13.10;63.00;;;;;;5005742;28;20072;-74
2021/03/22 11:30:01;;;;;;;25.33;13.63;;;13.20;62.70;;;;;;4999674;28;20379;-74
2021/03/22 11:32:30;;;;;;;17.47;11.07;;;13.30;62.20;;;;;;5003792;28;20360;-75
2021/03/22 11:34:56;;;;;;;18.63;10.17;;;13.40;61.60;;;;;;5000788;28;20033;-75
2021/03/22 11:37:32;;;;;;;22.67;11.17;;;13.40;61.40;;;;;;5017278;28;20052;-74
2021/03/22 11:40:05;;;;;;;17.53;8.23;;;13.50;61.20;;;;;;5005525;28;20033;-74
2021/03/22 11:42:31;;;;;;;15.20;7.17;;;13.40;60.90;;;;;;5026013;28;20033;-75
2021/03/22 11:44:57;;;;;;;14.40;8.13;;;13.40;60.30;;;;;;5023486;28;20103;-76
2021/03/22 11:47:40;;;;;;;16.13;8.30;;;13.40;60.40;;;;;;4997427;28;20053;-74
2021/03/22 11:50:34;;;;;;;15.40;7.50;;;13.40;60.30;;;;;;5011949;28;20092;-76
2021/03/22 11:53:18;;;;;;;13.97;6.30;;;13.20;60.10;;;;;;4997741;28;20419;-75
2021/03/22 11:55:45;;;;;;;15.87;7.23;;;13.10;60.50;;;;;;5019112;28;20021;-79
2021/03/22 11:58:39;;;;;;;13.23;5.87;;;13.20;60.80;;;;;;5005245;28;20026;-75
2021/03/22 12:01:26;;;;;;;12.68;6.25;;;13.20;60.10;;;;;;5006043;28;20140;-76
2021/03/22 12:04:04;;;;;;;13.53;6.40;;;13.30;60.00;;;;;;5015434;28;20116;-74
2021/03/22 12:06:47;;;;;;;12.77;6.40;;;13.40;59.60;;;;;;4997313;28;20036;-74
2021/03/22 12:09:12;;;;;;;9.80;4.70;;;13.50;59.00;;;;;;4997002;28;20058;-74
2021/03/22 12:11:38;;;;;;;11.60;4.55;;;13.60;58.10;;;;;;5010869;28;20467;-75
2021/03/22 12:14:04;;;;;;;11.00;5.37;;;13.50;57.90;;;;;;4997903;28;20026;-76
2021/03/22 12:16:35;;;;;;;11.52;4.22;;;13.50;58.20;;;;;;5001012;28;20053;-75
2021/03/22 12:19:07;;;;;;;13.95;5.22;;;13.50;57.10;;;;;;5022811;28;20084;-75
2021/03/22 12:21:34;;;;;;;8.90;4.70;;;13.50;57.70;;;;;;5024673;28;20029;-73
2021/03/22 12:24:00;;;;;;;8.25;4.13;;;13.60;57.20;;;;;;4998760;28;20096;-75
2021/03/22 12:26:28;;;;;;;11.50;4.35;;;13.70;56.50;;;;;;4979936;28;20524;-74
2021/03/22 12:28:55;;;;;;;8.95;4.50;;;13.80;56.20;;;;;;5004277;28;20058;-74
2021/03/22 12:31:25;;;;;;;9.60;4.28;;;13.90;56.60;;;;;;4994618;28;20398;-79
2021/03/22 12:33:52;;;;;;;13.82;4.07;;;13.90;56.10;;;;;;5005011;28;20095;-76
2021/03/22 12:36:19;;;;;;;10.23;4.07;;;14.00;56.10;;;;;;5012292;28;20488;-75
2021/03/22 12:38:45;;;;;;;8.57;4.10;;;13.90;55.40;;;;;;5030075;28;20033;-76
2021/03/22 12:41:18;;;;;;;10.35;4.03;;;13.80;54.90;;;;;;5017020;28;20034;-75
2021/03/22 12:43:44;;;;;;;8.00;3.73;;;13.70;55.20;;;;;;5022630;28;20021;-74
2021/03/22 12:46:10;;;;;;;11.70;4.50;;;13.60;55.50;;;;;;4991026;28;20251;-76
2021/03/22 12:48:36;;;;;;;9.00;3.80;;;13.50;56.30;;;;;;5021718;28;20044;-75
2021/03/22 12:51:02;;;;;;;6.90;3.13;;;13.40;56.10;;;;;;5006690;28;20100;-74
2021/03/22 12:53:27;;;;;;;6.53;3.22;;;13.40;56.20;;;;;;5004151;28;20075;-75
2021/03/22 12:55:53;;;;;;;6.72;3.15;;;13.20;56.40;;;;;;5022245;28;20033;-78
2021/03/22 12:58:23;;;;;;;5.63;2.92;;;13.00;55.80;;;;;;5027489;28;20762;-75
2021/03/22 13:00:51;;;;;;;5.57;3.40;;;12.70;57.30;;;;;;5009014;28;20022;-75
2021/03/22 13:03:22;;;;;;;8.10;4.00;;;12.50;58.10;;;;;;5011525;28;20040;-75
2021/03/22 13:05:49;;;;;;;10.20;4.53;;;12.50;58.40;;;;;;5007979;28;20104;-75
2021/03/22 13:08:15;;;;;;;15.23;6.97;;;12.30;58.70;;;;;;5009674;28;20064;-75
2021/03/22 13:10:40;;;;;;;15.53;8.50;;;12.20;58.10;;;;;;5028436;28;20382;-76
2021/03/22 13:13:07;;;;;;;13.10;7.27;;;12.00;58.80;;;;;;4990699;28;20029;-75